sensor_id;sensor_type;location;lat;lon;timestamp;P1;durP1;ratioP1;P2;durP2;ratioP2
13331;SDS011;6735;51.456;12.626;2023-02-10T00:01:10;24.90;;;16.50;;
13331;SDS011;6735;51.456;12.626;2023-02-10T00:03:37;23.13;;;15.87;;
13331;SDS011;6735;51.456;12.626;2023-02-10T00:06:04;24.77;;;15.87;;
13331;SDS011;6735;51.456;12.626;2023-02-10T00:08:31;24.87;;;17.47;;
13331;SDS011;6735;51.456;12.626;2023-02-10T00:11:00;22.57;;;15.47;;
13331;SDS011;6735;51.456;12.626;2023-02-10T00:13:27;22.97;;;16.37;;
13331;SDS011;6735;51.456;12.626;2023-02-10T00:15:54;22.70;;;15.93;;
13331;SDS011;6735;51.456;12.626;2023-02-10T00:18:21;21.70;;;16.20;;
13331;SDS011;6735;51.456;12.626;2023-02-10T00:20:47;24.43;;;16.67;;
13331;SDS011;6735;51.456;12.626;2023-02-10T00:23:12;20.83;;;16.13;;
13331;SDS011;6735;51.456;12.626;2023-02-10T00:25:38;22.63;;;16.27;;
13331;SDS011;6735;51.456;12.626;2023-02-10T00:28:03;27.10;;;17.13;;
13331;SDS011;6735;51.456;12.626;2023-02-10T00:30:29;22.97;;;16.50;;
13331;SDS011;6735;51.456;12.626;2023-02-10T00:32:55;26.07;;;16.97;;
13331;SDS011;6735;51.456;12.626;2023-02-10T00:35:21;23.70;;;15.70;;
13331;SDS011;6735;51.456;12.626;2023-02-10T00:37:46;22.40;;;16.57;;
13331;SDS011;6735;51.456;12.626;2023-02-10T00:40:12;23.90;;;16.10;;
13331;SDS011;6735;51.456;12.626;2023-02-10T00:42:37;24.90;;;16.20;;
13331;SDS011;6735;51.456;12.626;2023-02-10T00:45:03;25.97;;;16.33;;
13331;SDS011;6735;51.456;12.626;2023-02-10T00:47:29;24.03;;;15.97;;
13331;SDS011;6735;51.456;12.626;2023-02-10T00:49:55;23.83;;;16.20;;
13331;SDS011;6735;51.456;12.626;2023-02-10T00:52:21;23.77;;;16.10;;
13331;SDS011;6735;51.456;12.626;2023-02-10T00:54:47;23.17;;;15.93;;
13331;SDS011;6735;51.456;12.626;2023-02-10T00:57:12;21.73;;;16.73;;
13331;SDS011;6735;51.456;12.626;2023-02-10T00:59:38;22.70;;;15.07;;
13331;SDS011;6735;51.456;12.626;2023-02-10T01:02:04;23.33;;;17.00;;
13331;SDS011;6735;51.456;12.626;2023-02-10T01:04:29;21.90;;;16.07;;
13331;SDS011;6735;51.456;12.626;2023-02-10T01:06:55;24.63;;;16.33;;
13331;SDS011;6735;51.456;12.626;2023-02-10T01:09:20;22.97;;;16.53;;
13331;SDS011;6735;51.456;12.626;2023-02-10T01:11:46;22.80;;;16.70;;
13331;SDS011;6735;51.456;12.626;2023-02-10T01:14:11;24.20;;;16.17;;
13331;SDS011;6735;51.456;12.626;2023-02-10T01:16:37;23.67;;;16.53;;
13331;SDS011;6735;51.456;12.626;2023-02-10T01:19:02;22.43;;;16.33;;
13331;SDS011;6735;51.456;12.626;2023-02-10T01:21:28;22.43;;;16.50;;
13331;SDS011;6735;51.456;12.626;2023-02-10T01:23:54;20.93;;;16.37;;
13331;SDS011;6735;51.456;12.626;2023-02-10T01:26:20;25.77;;;16.87;;
13331;SDS011;6735;51.456;12.626;2023-02-10T01:28:46;23.90;;;16.57;;
13331;SDS011;6735;51.456;12.626;2023-02-10T01:31:12;21.83;;;16.37;;
13331;SDS011;6735;51.456;12.626;2023-02-10T01:33:40;22.43;;;16.37;;
13331;SDS011;6735;51.456;12.626;2023-02-10T01:36:07;22.13;;;16.00;;
13331;SDS011;6735;51.456;12.626;2023-02-10T01:38:37;22.90;;;16.53;;
13331;SDS011;6735;51.456;12.626;2023-02-10T01:41:03;23.43;;;16.30;;
13331;SDS011;6735;51.456;12.626;2023-02-10T01:43:30;26.03;;;17.27;;
13331;SDS011;6735;51.456;12.626;2023-02-10T01:45:55;21.50;;;16.20;;
13331;SDS011;6735;51.456;12.626;2023-02-10T01:48:21;21.63;;;16.23;;
13331;SDS011;6735;51.456;12.626;2023-02-10T01:50:53;24.23;;;16.83;;
13331;SDS011;6735;51.456;12.626;2023-02-10T01:53:23;23.07;;;17.13;;
13331;SDS011;6735;51.456;12.626;2023-02-10T01:55:50;21.60;;;16.33;;
13331;SDS011;6735;51.456;12.626;2023-02-10T01:58:20;22.73;;;16.00;;
13331;SDS011;6735;51.456;12.626;2023-02-10T02:00:48;25.47;;;17.30;;
13331;SDS011;6735;51.456;12.626;2023-02-10T02:03:14;24.97;;;17.57;;
13331;SDS011;6735;51.456;12.626;2023-02-10T02:05:40;25.80;;;16.73;;
13331;SDS011;6735;51.456;12.626;2023-02-10T02:08:18;24.13;;;16.70;;
13331;SDS011;6735;51.456;12.626;2023-02-10T02:10:51;26.30;;;17.80;;
13331;SDS011;6735;51.456;12.626;2023-02-10T02:25:02;24.60;;;17.50;;
13331;SDS011;6735;51.456;12.626;2023-02-10T02:30:43;24.00;;;17.80;;
13331;SDS011;6735;51.456;12.626;2023-02-10T02:33:33;22.87;;;16.90;;
13331;SDS011;6735;51.456;12.626;2023-02-10T02:38:41;26.10;;;19.40;;
13331;SDS011;6735;51.456;12.626;2023-02-10T02:41:08;23.83;;;18.17;;
13331;SDS011;6735;51.456;12.626;2023-02-10T02:43:34;28.23;;;18.97;;
13331;SDS011;6735;51.456;12.626;2023-02-10T02:46:10;30.03;;;18.77;;
13331;SDS011;6735;51.456;12.626;2023-02-10T02:51:25;27.73;;;19.67;;
13331;SDS011;6735;51.456;12.626;2023-02-10T02:57:00;27.23;;;19.23;;
13331;SDS011;6735;51.456;12.626;2023-02-10T02:59:40;27.17;;;19.47;;
13331;SDS011;6735;51.456;12.626;2023-02-10T03:02:17;24.43;;;18.87;;
13331;SDS011;6735;51.456;12.626;2023-02-10T03:04:44;26.83;;;20.33;;
13331;SDS011;6735;51.456;12.626;2023-02-10T03:07:10;31.10;;;20.87;;
13331;SDS011;6735;51.456;12.626;2023-02-10T03:09:36;29.67;;;21.10;;
13331;SDS011;6735;51.456;12.626;2023-02-10T03:12:02;31.50;;;22.10;;
13331;SDS011;6735;51.456;12.626;2023-02-10T03:14:28;25.73;;;19.83;;
13331;SDS011;6735;51.456;12.626;2023-02-10T03:16:53;29.10;;;21.47;;
13331;SDS011;6735;51.456;12.626;2023-02-10T03:19:18;30.37;;;21.83;;
13331;SDS011;6735;51.456;12.626;2023-02-10T03:21:44;29.20;;;21.50;;
13331;SDS011;6735;51.456;12.626;2023-02-10T03:24:10;29.83;;;21.47;;
13331;SDS011;6735;51.456;12.626;2023-02-10T03:26:36;30.83;;;21.33;;
13331;SDS011;6735;51.456;12.626;2023-02-10T03:29:02;30.93;;;22.90;;
13331;SDS011;6735;51.456;12.626;2023-02-10T03:31:28;30.03;;;21.77;;
13331;SDS011;6735;51.456;12.626;2023-02-10T03:33:54;33.40;;;22.87;;
13331;SDS011;6735;51.456;12.626;2023-02-10T03:36:19;31.90;;;23.07;;
13331;SDS011;6735;51.456;12.626;2023-02-10T03:38:44;31.80;;;22.40;;
13331;SDS011;6735;51.456;12.626;2023-02-10T03:41:10;31.10;;;22.37;;
13331;SDS011;6735;51.456;12.626;2023-02-10T03:43:36;31.97;;;22.57;;
13331;SDS011;6735;51.456;12.626;2023-02-10T03:46:02;32.47;;;22.20;;
13331;SDS011;6735;51.456;12.626;2023-02-10T03:48:28;29.43;;;22.47;;
13331;SDS011;6735;51.456;12.626;2023-02-10T03:50:58;29.67;;;21.97;;
13331;SDS011;6735;51.456;12.626;2023-02-10T03:53:24;30.40;;;22.60;;
13331;SDS011;6735;51.456;12.626;2023-02-10T03:55:50;32.97;;;22.90;;
13331;SDS011;6735;51.456;12.626;2023-02-10T03:58:16;30.97;;;22.57;;
13331;SDS011;6735;51.456;12.626;2023-02-10T04:00:42;30.03;;;22.50;;
13331;SDS011;6735;51.456;12.626;2023-02-10T04:03:07;30.90;;;22.73;;
13331;SDS011;6735;51.456;12.626;2023-02-10T04:05:33;30.13;;;22.30;;
13331;SDS011;6735;51.456;12.626;2023-02-10T04:07:58;29.20;;;20.83;;
13331;SDS011;6735;51.456;12.626;2023-02-10T04:10:24;34.77;;;23.63;;
13331;SDS011;6735;51.456;12.626;2023-02-10T04:12:49;30.60;;;22.87;;
13331;SDS011;6735;51.456;12.626;2023-02-10T04:15:15;32.97;;;22.87;;
13331;SDS011;6735;51.456;12.626;2023-02-10T04:17:41;31.53;;;23.63;;
13331;SDS011;6735;51.456;12.626;2023-02-10T04:20:06;31.93;;;22.80;;
13331;SDS011;6735;51.456;12.626;2023-02-10T04:22:32;32.67;;;24.13;;
13331;SDS011;6735;51.456;12.626;2023-02-10T04:24:58;31.80;;;24.07;;
13331;SDS011;6735;51.456;12.626;2023-02-10T04:27:23;35.63;;;25.43;;
13331;SDS011;6735;51.456;12.626;2023-02-10T04:29:49;37.57;;;24.47;;
13331;SDS011;6735;51.456;12.626;2023-02-10T04:32:14;31.80;;;24.17;;
13331;SDS011;6735;51.456;12.626;2023-02-10T04:34:40;31.47;;;23.83;;
13331;SDS011;6735;51.456;12.626;2023-02-10T04:37:05;33.60;;;25.00;;
13331;SDS011;6735;51.456;12.626;2023-02-10T04:39:31;34.80;;;25.37;;
13331;SDS011;6735;51.456;12.626;2023-02-10T04:41:56;31.90;;;24.27;;
13331;SDS011;6735;51.456;12.626;2023-02-10T04:44:22;34.90;;;25.87;;
13331;SDS011;6735;51.456;12.626;2023-02-10T04:46:47;36.67;;;25.47;;
13331;SDS011;6735;51.456;12.626;2023-02-10T04:49:14;40.17;;;26.77;;
13331;SDS011;6735;51.456;12.626;2023-02-10T04:51:41;35.43;;;26.07;;
13331;SDS011;6735;51.456;12.626;2023-02-10T04:54:07;37.80;;;26.07;;
13331;SDS011;6735;51.456;12.626;2023-02-10T04:56:33;33.40;;;26.13;;
13331;SDS011;6735;51.456;12.626;2023-02-10T04:58:58;37.10;;;26.33;;
13331;SDS011;6735;51.456;12.626;2023-02-10T05:01:24;37.67;;;28.17;;
13331;SDS011;6735;51.456;12.626;2023-02-10T05:03:49;37.90;;;26.67;;
13331;SDS011;6735;51.456;12.626;2023-02-10T05:06:15;37.90;;;27.63;;
13331;SDS011;6735;51.456;12.626;2023-02-10T05:08:41;39.93;;;28.53;;
13331;SDS011;6735;51.456;12.626;2023-02-10T05:11:07;38.80;;;27.37;;
13331;SDS011;6735;51.456;12.626;2023-02-10T05:13:34;36.43;;;27.17;;
13331;SDS011;6735;51.456;12.626;2023-02-10T05:16:00;37.07;;;28.17;;
13331;SDS011;6735;51.456;12.626;2023-02-10T05:18:28;42.70;;;29.67;;
13331;SDS011;6735;51.456;12.626;2023-02-10T05:20:54;42.53;;;29.00;;
13331;SDS011;6735;51.456;12.626;2023-02-10T05:23:20;36.83;;;28.43;;
13331;SDS011;6735;51.456;12.626;2023-02-10T05:25:46;41.67;;;29.80;;
13331;SDS011;6735;51.456;12.626;2023-02-10T05:28:12;39.37;;;28.90;;
13331;SDS011;6735;51.456;12.626;2023-02-10T05:30:37;41.77;;;29.63;;
13331;SDS011;6735;51.456;12.626;2023-02-10T05:33:03;39.93;;;28.80;;
13331;SDS011;6735;51.456;12.626;2023-02-10T05:35:28;39.63;;;29.60;;
13331;SDS011;6735;51.456;12.626;2023-02-10T05:37:54;38.30;;;29.00;;
13331;SDS011;6735;51.456;12.626;2023-02-10T05:40:19;41.67;;;30.07;;
13331;SDS011;6735;51.456;12.626;2023-02-10T05:42:45;42.10;;;29.40;;
13331;SDS011;6735;51.456;12.626;2023-02-10T05:45:10;38.77;;;29.20;;
13331;SDS011;6735;51.456;12.626;2023-02-10T05:47:35;40.47;;;29.67;;
13331;SDS011;6735;51.456;12.626;2023-02-10T05:50:01;41.83;;;30.53;;
13331;SDS011;6735;51.456;12.626;2023-02-10T05:52:27;43.43;;;30.37;;
13331;SDS011;6735;51.456;12.626;2023-02-10T05:54:52;41.07;;;30.57;;
13331;SDS011;6735;51.456;12.626;2023-02-10T05:57:17;42.80;;;30.90;;
13331;SDS011;6735;51.456;12.626;2023-02-10T05:59:43;45.17;;;31.60;;
13331;SDS011;6735;51.456;12.626;2023-02-10T06:02:08;42.37;;;31.47;;
13331;SDS011;6735;51.456;12.626;2023-02-10T06:04:34;45.77;;;32.47;;
13331;SDS011;6735;51.456;12.626;2023-02-10T06:06:59;48.00;;;31.07;;
13331;SDS011;6735;51.456;12.626;2023-02-10T06:09:25;46.43;;;31.10;;
13331;SDS011;6735;51.456;12.626;2023-02-10T06:11:52;45.10;;;31.30;;
13331;SDS011;6735;51.456;12.626;2023-02-10T06:14:18;44.77;;;32.30;;
13331;SDS011;6735;51.456;12.626;2023-02-10T06:16:44;48.07;;;33.03;;
13331;SDS011;6735;51.456;12.626;2023-02-10T06:19:09;46.30;;;32.50;;
13331;SDS011;6735;51.456;12.626;2023-02-10T06:21:35;43.47;;;31.63;;
13331;SDS011;6735;51.456;12.626;2023-02-10T06:24:00;42.50;;;31.90;;
13331;SDS011;6735;51.456;12.626;2023-02-10T06:26:26;45.13;;;31.93;;
13331;SDS011;6735;51.456;12.626;2023-02-10T06:28:52;44.70;;;32.63;;
13331;SDS011;6735;51.456;12.626;2023-02-10T06:31:19;46.57;;;32.03;;
13331;SDS011;6735;51.456;12.626;2023-02-10T06:33:44;47.27;;;33.40;;
13331;SDS011;6735;51.456;12.626;2023-02-10T06:36:10;44.87;;;32.00;;
13331;SDS011;6735;51.456;12.626;2023-02-10T06:38:36;48.63;;;33.07;;
13331;SDS011;6735;51.456;12.626;2023-02-10T06:41:02;45.13;;;32.63;;
13331;SDS011;6735;51.456;12.626;2023-02-10T06:43:28;46.80;;;33.93;;
13331;SDS011;6735;51.456;12.626;2023-02-10T06:45:54;47.43;;;33.10;;
13331;SDS011;6735;51.456;12.626;2023-02-10T06:48:19;46.40;;;33.33;;
13331;SDS011;6735;51.456;12.626;2023-02-10T06:50:45;48.33;;;34.70;;
13331;SDS011;6735;51.456;12.626;2023-02-10T06:53:11;49.67;;;35.07;;
13331;SDS011;6735;51.456;12.626;2023-02-10T06:55:36;49.13;;;33.90;;
13331;SDS011;6735;51.456;12.626;2023-02-10T06:58:02;52.50;;;33.43;;
13331;SDS011;6735;51.456;12.626;2023-02-10T07:00:28;46.13;;;33.60;;
13331;SDS011;6735;51.456;12.626;2023-02-10T07:02:56;43.27;;;32.30;;
13331;SDS011;6735;51.456;12.626;2023-02-10T07:05:22;51.13;;;34.50;;
13331;SDS011;6735;51.456;12.626;2023-02-10T07:07:47;46.67;;;33.63;;
13331;SDS011;6735;51.456;12.626;2023-02-10T07:10:13;46.03;;;33.47;;
13331;SDS011;6735;51.456;12.626;2023-02-10T07:12:38;45.33;;;33.07;;
13331;SDS011;6735;51.456;12.626;2023-02-10T07:15:04;45.57;;;33.67;;
13331;SDS011;6735;51.456;12.626;2023-02-10T07:17:30;45.03;;;33.53;;
13331;SDS011;6735;51.456;12.626;2023-02-10T07:19:56;47.60;;;34.17;;
13331;SDS011;6735;51.456;12.626;2023-02-10T07:22:21;54.43;;;36.43;;
13331;SDS011;6735;51.456;12.626;2023-02-10T07:24:47;52.93;;;36.07;;
13331;SDS011;6735;51.456;12.626;2023-02-10T07:27:13;51.70;;;35.17;;
13331;SDS011;6735;51.456;12.626;2023-02-10T07:29:38;51.10;;;35.30;;
13331;SDS011;6735;51.456;12.626;2023-02-10T07:32:04;53.07;;;37.03;;
13331;SDS011;6735;51.456;12.626;2023-02-10T07:34:29;53.57;;;36.13;;
13331;SDS011;6735;51.456;12.626;2023-02-10T07:36:58;48.33;;;35.03;;
13331;SDS011;6735;51.456;12.626;2023-02-10T07:39:24;51.43;;;35.63;;
13331;SDS011;6735;51.456;12.626;2023-02-10T07:41:50;49.43;;;34.57;;
13331;SDS011;6735;51.456;12.626;2023-02-10T07:44:17;53.03;;;37.13;;
13331;SDS011;6735;51.456;12.626;2023-02-10T07:46:43;52.90;;;36.27;;
13331;SDS011;6735;51.456;12.626;2023-02-10T07:49:09;52.63;;;36.20;;
13331;SDS011;6735;51.456;12.626;2023-02-10T07:51:34;53.80;;;36.60;;
13331;SDS011;6735;51.456;12.626;2023-02-10T07:54:00;52.50;;;35.80;;
13331;SDS011;6735;51.456;12.626;2023-02-10T07:56:26;53.80;;;37.27;;
13331;SDS011;6735;51.456;12.626;2023-02-10T07:58:51;50.20;;;37.20;;
13331;SDS011;6735;51.456;12.626;2023-02-10T08:01:17;55.77;;;38.73;;
13331;SDS011;6735;51.456;12.626;2023-02-10T08:03:42;55.63;;;38.70;;
13331;SDS011;6735;51.456;12.626;2023-02-10T08:06:08;55.13;;;38.80;;
13331;SDS011;6735;51.456;12.626;2023-02-10T08:08:33;59.60;;;39.20;;
13331;SDS011;6735;51.456;12.626;2023-02-10T08:10:59;59.53;;;39.20;;
13331;SDS011;6735;51.456;12.626;2023-02-10T08:13:27;56.67;;;38.37;;
13331;SDS011;6735;51.456;12.626;2023-02-10T08:15:54;55.77;;;39.13;;
13331;SDS011;6735;51.456;12.626;2023-02-10T08:18:19;61.30;;;39.93;;
13331;SDS011;6735;51.456;12.626;2023-02-10T08:20:44;56.87;;;38.73;;
13331;SDS011;6735;51.456;12.626;2023-02-10T08:23:13;62.40;;;40.70;;
13331;SDS011;6735;51.456;12.626;2023-02-10T08:25:40;58.67;;;38.80;;
13331;SDS011;6735;51.456;12.626;2023-02-10T08:28:06;62.17;;;41.13;;
13331;SDS011;6735;51.456;12.626;2023-02-10T08:30:31;59.80;;;39.30;;
13331;SDS011;6735;51.456;12.626;2023-02-10T08:32:57;61.87;;;41.57;;
13331;SDS011;6735;51.456;12.626;2023-02-10T08:35:23;61.37;;;41.23;;
13331;SDS011;6735;51.456;12.626;2023-02-10T08:37:49;60.80;;;40.30;;
13331;SDS011;6735;51.456;12.626;2023-02-10T08:40:14;61.87;;;40.63;;
13331;SDS011;6735;51.456;12.626;2023-02-10T08:42:40;64.67;;;40.97;;
13331;SDS011;6735;51.456;12.626;2023-02-10T08:45:05;65.30;;;39.97;;
13331;SDS011;6735;51.456;12.626;2023-02-10T08:47:32;61.57;;;39.50;;
13331;SDS011;6735;51.456;12.626;2023-02-10T08:49:58;62.13;;;37.57;;
13331;SDS011;6735;51.456;12.626;2023-02-10T08:52:24;64.47;;;40.33;;
13331;SDS011;6735;51.456;12.626;2023-02-10T08:54:49;68.67;;;41.77;;
13331;SDS011;6735;51.456;12.626;2023-02-10T08:57:15;62.67;;;41.00;;
13331;SDS011;6735;51.456;12.626;2023-02-10T08:59:41;63.37;;;40.03;;
13331;SDS011;6735;51.456;12.626;2023-02-10T09:02:06;60.93;;;38.87;;
13331;SDS011;6735;51.456;12.626;2023-02-10T09:04:31;69.10;;;41.40;;
13331;SDS011;6735;51.456;12.626;2023-02-10T09:06:57;62.63;;;39.27;;
13331;SDS011;6735;51.456;12.626;2023-02-10T09:09:22;61.77;;;40.20;;
13331;SDS011;6735;51.456;12.626;2023-02-10T09:11:49;67.17;;;41.17;;
13331;SDS011;6735;51.456;12.626;2023-02-10T09:14:16;67.30;;;42.40;;
13331;SDS011;6735;51.456;12.626;2023-02-10T09:16:42;62.40;;;39.60;;
13331;SDS011;6735;51.456;12.626;2023-02-10T09:19:08;63.07;;;41.13;;
13331;SDS011;6735;51.456;12.626;2023-02-10T09:21:34;62.53;;;39.90;;
13331;SDS011;6735;51.456;12.626;2023-02-10T09:23:59;57.13;;;38.13;;
13331;SDS011;6735;51.456;12.626;2023-02-10T09:26:25;63.70;;;39.60;;
13331;SDS011;6735;51.456;12.626;2023-02-10T09:28:50;59.13;;;39.50;;
13331;SDS011;6735;51.456;12.626;2023-02-10T09:31:16;61.43;;;38.97;;
13331;SDS011;6735;51.456;12.626;2023-02-10T09:33:42;63.83;;;40.17;;
13331;SDS011;6735;51.456;12.626;2023-02-10T09:36:14;59.83;;;39.27;;
13331;SDS011;6735;51.456;12.626;2023-02-10T09:38:41;58.07;;;38.27;;
13331;SDS011;6735;51.456;12.626;2023-02-10T09:41:26;56.73;;;38.37;;
13331;SDS011;6735;51.456;12.626;2023-02-10T09:44:15;57.50;;;37.87;;
13331;SDS011;6735;51.456;12.626;2023-02-10T09:46:58;55.93;;;35.57;;
13331;SDS011;6735;51.456;12.626;2023-02-10T09:52:51;54.73;;;36.30;;
13331;SDS011;6735;51.456;12.626;2023-02-10T09:55:43;58.50;;;36.57;;
13331;SDS011;6735;51.456;12.626;2023-02-10T09:58:30;57.33;;;36.63;;
13331;SDS011;6735;51.456;12.626;2023-02-10T10:01:21;53.87;;;35.50;;
13331;SDS011;6735;51.456;12.626;2023-02-10T10:06:30;58.23;;;36.70;;
13331;SDS011;6735;51.456;12.626;2023-02-10T10:11:37;58.83;;;37.63;;
13331;SDS011;6735;51.456;12.626;2023-02-10T10:14:24;57.13;;;37.50;;
13331;SDS011;6735;51.456;12.626;2023-02-10T10:25:28;56.50;;;36.40;;
13331;SDS011;6735;51.456;12.626;2023-02-10T10:31:15;52.27;;;35.20;;
13331;SDS011;6735;51.456;12.626;2023-02-10T10:36:46;52.73;;;34.97;;
13331;SDS011;6735;51.456;12.626;2023-02-10T10:39:27;52.97;;;33.77;;
13331;SDS011;6735;51.456;12.626;2023-02-10T10:42:02;53.87;;;33.80;;
13331;SDS011;6735;51.456;12.626;2023-02-10T10:44:58;56.77;;;33.20;;
13331;SDS011;6735;51.456;12.626;2023-02-10T10:50:13;53.67;;;34.63;;
13331;SDS011;6735;51.456;12.626;2023-02-10T10:52:41;49.50;;;33.97;;
13331;SDS011;6735;51.456;12.626;2023-02-10T10:55:41;51.87;;;33.93;;
13331;SDS011;6735;51.456;12.626;2023-02-10T10:58:03;48.77;;;33.63;;
13331;SDS011;6735;51.456;12.626;2023-02-10T11:00:54;51.73;;;32.70;;
13331;SDS011;6735;51.456;12.626;2023-02-10T11:03:22;50.50;;;32.30;;
13331;SDS011;6735;51.456;12.626;2023-02-10T11:06:04;51.10;;;31.43;;
13331;SDS011;6735;51.456;12.626;2023-02-10T11:08:37;60.90;;;34.63;;
13331;SDS011;6735;51.456;12.626;2023-02-10T11:11:13;48.73;;;32.83;;
13331;SDS011;6735;51.456;12.626;2023-02-10T11:13:47;48.40;;;30.90;;
13331;SDS011;6735;51.456;12.626;2023-02-10T11:16:15;49.33;;;30.87;;
13331;SDS011;6735;51.456;12.626;2023-02-10T11:18:54;61.80;;;32.07;;
13331;SDS011;6735;51.456;12.626;2023-02-10T11:21:31;46.93;;;32.27;;
13331;SDS011;6735;51.456;12.626;2023-02-10T11:24:26;47.67;;;32.13;;
13331;SDS011;6735;51.456;12.626;2023-02-10T11:26:56;46.87;;;31.37;;
13331;SDS011;6735;51.456;12.626;2023-02-10T11:29:23;51.63;;;32.50;;
13331;SDS011;6735;51.456;12.626;2023-02-10T11:31:51;54.17;;;31.43;;
13331;SDS011;6735;51.456;12.626;2023-02-10T11:34:19;48.37;;;31.40;;
13331;SDS011;6735;51.456;12.626;2023-02-10T11:36:50;51.57;;;32.00;;
13331;SDS011;6735;51.456;12.626;2023-02-10T11:39:22;47.27;;;33.00;;
13331;SDS011;6735;51.456;12.626;2023-02-10T11:42:09;55.60;;;32.37;;
13331;SDS011;6735;51.456;12.626;2023-02-10T11:44:52;48.17;;;31.63;;
13331;SDS011;6735;51.456;12.626;2023-02-10T11:47:38;51.30;;;32.10;;
13331;SDS011;6735;51.456;12.626;2023-02-10T11:50:15;50.33;;;31.83;;
13331;SDS011;6735;51.456;12.626;2023-02-10T11:52:48;51.43;;;31.47;;
13331;SDS011;6735;51.456;12.626;2023-02-10T11:55:14;65.27;;;34.00;;
13331;SDS011;6735;51.456;12.626;2023-02-10T12:00:34;49.43;;;31.50;;
13331;SDS011;6735;51.456;12.626;2023-02-10T12:06:17;48.10;;;30.57;;
13331;SDS011;6735;51.456;12.626;2023-02-10T12:11:54;47.67;;;29.83;;
13331;SDS011;6735;51.456;12.626;2023-02-10T12:28:14;48.67;;;28.97;;
13331;SDS011;6735;51.456;12.626;2023-02-10T12:30:56;42.47;;;28.70;;
13331;SDS011;6735;51.456;12.626;2023-02-10T12:33:42;46.70;;;28.70;;
13331;SDS011;6735;51.456;12.626;2023-02-10T12:39:21;43.27;;;27.70;;
13331;SDS011;6735;51.456;12.626;2023-02-10T12:42:11;37.17;;;26.23;;
13331;SDS011;6735;51.456;12.626;2023-02-10T12:44:54;47.43;;;25.83;;
13331;SDS011;6735;51.456;12.626;2023-02-10T12:47:45;41.10;;;25.40;;
13331;SDS011;6735;51.456;12.626;2023-02-10T12:50:26;41.00;;;24.23;;
13331;SDS011;6735;51.456;12.626;2023-02-10T12:58:52;32.03;;;22.20;;
13331;SDS011;6735;51.456;12.626;2023-02-10T13:01:30;32.90;;;22.73;;
13331;SDS011;6735;51.456;12.626;2023-02-10T13:04:11;40.43;;;22.97;;
13331;SDS011;6735;51.456;12.626;2023-02-10T13:06:46;36.03;;;22.63;;
13331;SDS011;6735;51.456;12.626;2023-02-10T13:09:23;36.97;;;21.03;;
13331;SDS011;6735;51.456;12.626;2023-02-10T13:12:13;32.43;;;20.40;;
13331;SDS011;6735;51.456;12.626;2023-02-10T13:14:48;31.00;;;20.23;;
13331;SDS011;6735;51.456;12.626;2023-02-10T13:17:18;28.83;;;19.20;;
13331;SDS011;6735;51.456;12.626;2023-02-10T13:19:52;37.70;;;20.70;;
13331;SDS011;6735;51.456;12.626;2023-02-10T13:25:12;33.07;;;19.47;;
13331;SDS011;6735;51.456;12.626;2023-02-10T13:27:58;30.67;;;18.07;;
13331;SDS011;6735;51.456;12.626;2023-02-10T13:33:40;33.47;;;19.03;;
13331;SDS011;6735;51.456;12.626;2023-02-10T13:36:28;30.80;;;17.93;;
13331;SDS011;6735;51.456;12.626;2023-02-10T13:39:02;31.77;;;18.53;;
13331;SDS011;6735;51.456;12.626;2023-02-10T13:41:32;32.40;;;19.13;;
13331;SDS011;6735;51.456;12.626;2023-02-10T13:44:16;31.10;;;18.37;;
13331;SDS011;6735;51.456;12.626;2023-02-10T13:46:52;31.27;;;19.30;;
13331;SDS011;6735;51.456;12.626;2023-02-10T13:49:33;28.10;;;18.10;;
13331;SDS011;6735;51.456;12.626;2023-02-10T13:52:22;33.87;;;18.37;;
13331;SDS011;6735;51.456;12.626;2023-02-10T13:57:38;34.60;;;18.23;;
13331;SDS011;6735;51.456;12.626;2023-02-10T14:00:43;29.97;;;18.63;;
13331;SDS011;6735;51.456;12.626;2023-02-10T14:05:50;38.40;;;19.90;;
13331;SDS011;6735;51.456;12.626;2023-02-10T14:08:26;35.57;;;20.73;;
13331;SDS011;6735;51.456;12.626;2023-02-10T14:11:04;29.47;;;19.20;;
13331;SDS011;6735;51.456;12.626;2023-02-10T14:13:31;30.63;;;19.53;;
13331;SDS011;6735;51.456;12.626;2023-02-10T14:16:02;34.23;;;20.63;;
13331;SDS011;6735;51.456;12.626;2023-02-10T14:18:30;34.30;;;20.70;;
13331;SDS011;6735;51.456;12.626;2023-02-10T14:21:18;34.57;;;21.67;;
13331;SDS011;6735;51.456;12.626;2023-02-10T14:23:49;33.73;;;20.50;;
13331;SDS011;6735;51.456;12.626;2023-02-10T14:26:22;31.20;;;20.03;;
13331;SDS011;6735;51.456;12.626;2023-02-10T14:28:58;33.33;;;21.50;;
13331;SDS011;6735;51.456;12.626;2023-02-10T14:31:26;35.07;;;21.30;;
13331;SDS011;6735;51.456;12.626;2023-02-10T14:33:54;34.00;;;22.00;;
13331;SDS011;6735;51.456;12.626;2023-02-10T14:36:21;32.83;;;21.30;;
13331;SDS011;6735;51.456;12.626;2023-02-10T14:38:51;36.67;;;22.33;;
13331;SDS011;6735;51.456;12.626;2023-02-10T14:41:19;34.50;;;21.50;;
13331;SDS011;6735;51.456;12.626;2023-02-10T14:43:46;33.77;;;21.73;;
13331;SDS011;6735;51.456;12.626;2023-02-10T14:46:18;32.80;;;21.30;;
13331;SDS011;6735;51.456;12.626;2023-02-10T14:48:56;29.57;;;20.37;;
13331;SDS011;6735;51.456;12.626;2023-02-10T14:51:25;38.07;;;20.80;;
13331;SDS011;6735;51.456;12.626;2023-02-10T14:53:51;33.97;;;21.33;;
13331;SDS011;6735;51.456;12.626;2023-02-10T14:56:24;34.80;;;21.13;;
13331;SDS011;6735;51.456;12.626;2023-02-10T14:58:52;34.47;;;21.23;;
13331;SDS011;6735;51.456;12.626;2023-02-10T15:01:25;33.20;;;21.87;;
13331;SDS011;6735;51.456;12.626;2023-02-10T15:03:55;31.77;;;22.90;;
13331;SDS011;6735;51.456;12.626;2023-02-10T15:06:22;32.57;;;22.83;;
13331;SDS011;6735;51.456;12.626;2023-02-10T15:08:58;34.10;;;23.37;;
13331;SDS011;6735;51.456;12.626;2023-02-10T15:11:38;33.63;;;23.70;;
13331;SDS011;6735;51.456;12.626;2023-02-10T15:14:43;39.63;;;24.43;;
13331;SDS011;6735;51.456;12.626;2023-02-10T15:17:20;34.93;;;23.93;;
13331;SDS011;6735;51.456;12.626;2023-02-10T15:19:56;39.77;;;24.93;;
13331;SDS011;6735;51.456;12.626;2023-02-10T15:22:33;35.00;;;23.90;;
13331;SDS011;6735;51.456;12.626;2023-02-10T15:27:48;36.83;;;22.73;;
13331;SDS011;6735;51.456;12.626;2023-02-10T15:30:18;32.17;;;24.17;;
13331;SDS011;6735;51.456;12.626;2023-02-10T15:32:48;38.53;;;22.70;;
13331;SDS011;6735;51.456;12.626;2023-02-10T15:35:15;32.40;;;23.57;;
13331;SDS011;6735;51.456;12.626;2023-02-10T15:37:41;35.43;;;23.50;;
13331;SDS011;6735;51.456;12.626;2023-02-10T15:40:23;35.20;;;23.63;;
13331;SDS011;6735;51.456;12.626;2023-02-10T15:42:57;35.60;;;23.77;;
13331;SDS011;6735;51.456;12.626;2023-02-10T15:45:30;35.43;;;23.90;;
13331;SDS011;6735;51.456;12.626;2023-02-10T15:48:00;40.63;;;26.47;;
13331;SDS011;6735;51.456;12.626;2023-02-10T15:50:30;35.43;;;24.53;;
13331;SDS011;6735;51.456;12.626;2023-02-10T15:52:56;33.80;;;24.13;;
13331;SDS011;6735;51.456;12.626;2023-02-10T15:55:36;35.77;;;23.80;;
13331;SDS011;6735;51.456;12.626;2023-02-10T15:58:04;38.13;;;23.90;;
13331;SDS011;6735;51.456;12.626;2023-02-10T16:00:34;33.43;;;23.80;;
13331;SDS011;6735;51.456;12.626;2023-02-10T16:03:02;32.87;;;22.83;;
13331;SDS011;6735;51.456;12.626;2023-02-10T16:05:30;32.60;;;23.77;;
13331;SDS011;6735;51.456;12.626;2023-02-10T16:08:06;38.77;;;24.43;;
13331;SDS011;6735;51.456;12.626;2023-02-10T16:10:44;35.80;;;24.97;;